Terminal Aerodrome Forecast
Issued by NWS

Home | Current Version | Previous Version | Text Only | Print | Product List | Glossary Off
Versions: 1 2 3 4 5 6 7 8 9 10 11 12 13 14 15 16 17 18 19 20 21 22 23

000
FTUS43 KBIS 282100 AAA
TAFMOT
TAF AMD
KMOT 282157Z 2822/2918 01006KT P6SM FEW013 OVC090
     FM290200 31008KT P6SM SCT015 SCT090
     FM290800 30007KT P6SM SCT250=

USA.gov is the U.S. government's official web portal to all federal, state and local government web resources and services.